createdAt,value
2018-11-14T00:00:22.321Z,5.17
2018-11-14T00:02:51.542Z,5.92
2018-11-14T00:05:20.110Z,6.78
2018-11-14T00:07:48.619Z,8.05
2018-11-14T00:10:17.825Z,5.92
2018-11-14T00:12:46.341Z,6.10
2018-11-14T00:15:16.141Z,5.35
2018-11-14T00:17:45.779Z,5.00
2018-11-14T00:20:14.791Z,4.83
2018-11-14T00:22:44.348Z,5.78
2018-11-14T00:25:13.031Z,4.70
2018-11-14T00:27:41.607Z,7.47
2018-11-14T00:30:18.435Z,4.92
2018-11-14T00:32:46.789Z,5.40
2018-11-14T00:35:15.481Z,6.22
2018-11-14T00:37:44.554Z,6.33
2018-11-14T00:40:14.490Z,6.00
2018-11-14T00:42:43.793Z,5.30
2018-11-14T00:45:14.425Z,5.47
2018-11-14T00:47:44.208Z,5.83
2018-11-14T00:50:13.826Z,5.90
2018-11-14T00:52:42.901Z,4.37
2018-11-14T00:55:20.340Z,3.80
2018-11-14T00:57:49.789Z,3.95
2018-11-14T01:00:22.759Z,4.05
2018-11-14T01:02:51.325Z,3.87
2018-11-14T01:05:20.261Z,4.30
2018-11-14T01:07:48.787Z,4.20
2018-11-14T01:10:18.663Z,4.25
2018-11-14T01:12:47.770Z,3.95
2018-11-14T01:15:18.074Z,4.22
2018-11-14T01:17:46.590Z,4.50
2018-11-14T01:20:18.290Z,3.80
2018-11-14T01:22:47.109Z,4.22
2018-11-14T01:25:16.383Z,5.70
2018-11-14T01:27:45.234Z,5.33
2018-11-14T01:30:17.681Z,5.83
2018-11-14T01:32:47.053Z,5.40
2018-11-14T01:35:16.238Z,7.58
2018-11-14T01:37:44.780Z,6.58
2018-11-14T01:40:16.261Z,5.10
2018-11-14T01:42:46.515Z,6.10
2018-11-14T01:45:15.061Z,3.95
2018-11-14T01:47:43.790Z,5.62
2018-11-14T01:50:12.517Z,5.00
2018-11-14T01:52:41.112Z,5.37
2018-11-14T01:55:11.962Z,4.22
2018-11-14T01:57:40.596Z,4.50
2018-11-14T02:00:14.713Z,4.10
2018-11-14T02:02:43.285Z,4.90
2018-11-14T02:05:12.210Z,4.47
2018-11-14T02:07:40.773Z,4.62
2018-11-14T02:10:11.572Z,4.30
2018-11-14T02:12:40.533Z,5.28
2018-11-14T02:15:11.136Z,5.60
2018-11-14T02:17:39.923Z,4.65
2018-11-14T02:20:09.046Z,4.70
2018-11-14T02:22:37.681Z,4.53
2018-11-14T02:25:07.304Z,4.03
2018-11-14T02:27:35.876Z,4.33
2018-11-14T02:30:05.069Z,3.60
2018-11-14T02:32:33.603Z,3.92
2018-11-14T02:35:02.143Z,3.98
2018-11-14T02:37:30.723Z,4.67
2018-11-14T02:39:59.278Z,4.00
2018-11-14T02:42:27.829Z,3.55
2018-11-14T02:44:56.410Z,2.80
2018-11-14T02:47:25.061Z,3.40
2018-11-14T02:49:53.675Z,3.60
2018-11-14T02:52:22.210Z,3.60
2018-11-14T02:54:50.790Z,3.10
2018-11-14T02:57:19.353Z,3.30
2018-11-14T02:59:47.932Z,4.33
2018-11-14T03:02:16.518Z,4.62
2018-11-14T03:04:45.066Z,4.15
2018-11-14T03:07:13.593Z,3.80
2018-11-14T03:09:42.421Z,3.77
2018-11-14T03:12:10.995Z,4.50
2018-11-14T03:14:39.587Z,4.10
2018-11-14T03:17:08.174Z,4.45
2018-11-14T03:19:36.752Z,4.30
2018-11-14T03:22:05.374Z,3.85
2018-11-14T03:24:33.951Z,4.05
2018-11-14T03:27:02.505Z,4.17
2018-11-14T03:29:31.047Z,3.65
2018-11-14T03:31:59.617Z,4.00
2018-11-14T03:34:28.133Z,4.00
2018-11-14T03:36:56.758Z,4.25
2018-11-14T03:39:25.426Z,3.45
2018-11-14T03:41:53.977Z,3.45
2018-11-14T03:44:22.506Z,3.20
2018-11-14T03:46:51.056Z,3.15
2018-11-14T03:49:19.601Z,3.40
2018-11-14T03:51:48.183Z,3.15
2018-11-14T03:54:16.750Z,3.08
2018-11-14T03:56:45.288Z,3.45
2018-11-14T03:59:13.806Z,3.77
2018-11-14T04:01:42.361Z,3.80
2018-11-14T04:04:10.961Z,3.92
2018-11-14T04:06:39.532Z,5.12
2018-11-14T04:09:10.387Z,3.85
2018-11-14T04:11:39.128Z,4.05
2018-11-14T04:14:07.686Z,3.60
2018-11-14T04:16:36.227Z,3.70
2018-11-14T04:19:05.431Z,4.35
2018-11-14T04:21:33.997Z,3.10
2018-11-14T04:24:02.614Z,3.33
2018-11-14T04:26:31.130Z,3.60
2018-11-14T04:28:59.689Z,3.20
2018-11-14T04:31:28.373Z,2.95
2018-11-14T04:33:56.920Z,2.83
2018-11-14T04:36:25.534Z,3.60
2018-11-14T04:38:54.070Z,2.80
2018-11-14T04:41:22.654Z,6.92
2018-11-14T04:43:51.181Z,5.28
2018-11-14T04:46:19.833Z,5.70
2018-11-14T04:48:48.387Z,5.67
2018-11-14T04:51:16.890Z,5.90
2018-11-14T04:53:45.522Z,5.50
2018-11-14T04:56:14.054Z,5.37
2018-11-14T04:58:42.637Z,6.10
2018-11-14T05:01:11.345Z,5.25
2018-11-14T05:03:39.988Z,4.17
2018-11-14T05:06:08.510Z,3.30
2018-11-14T05:08:37.050Z,4.87
2018-11-14T05:11:06.179Z,3.95
2018-11-14T05:13:34.682Z,4.03
2018-11-14T05:16:03.333Z,4.65
2018-11-14T05:18:31.950Z,4.15
2018-11-14T05:21:00.497Z,4.10
2018-11-14T05:23:29.045Z,5.17
2018-11-14T05:25:57.665Z,5.08
2018-11-14T05:28:26.271Z,5.37
2018-11-14T05:30:54.828Z,4.40
2018-11-14T05:33:23.349Z,4.60
2018-11-14T05:35:51.894Z,4.53
2018-11-14T05:38:20.525Z,5.00
2018-11-14T05:40:49.141Z,4.97
2018-11-14T05:43:17.859Z,4.83
2018-11-14T05:45:46.405Z,4.92
2018-11-14T05:48:14.989Z,5.05
2018-11-14T05:50:43.550Z,4.83
2018-11-14T05:53:12.073Z,5.33
2018-11-14T05:55:40.613Z,6.40
2018-11-14T05:58:09.239Z,5.42
2018-11-14T06:00:37.789Z,6.08
2018-11-14T06:03:06.389Z,5.12
2018-11-14T06:05:35.000Z,6.08
2018-11-14T06:08:03.533Z,5.95
2018-11-14T06:10:32.109Z,6.75
2018-11-14T06:13:00.683Z,5.70
2018-11-14T06:15:29.359Z,4.67
2018-11-14T06:17:58.841Z,5.95
2018-11-14T06:20:27.346Z,4.70
2018-11-14T06:22:55.918Z,4.03
2018-11-14T06:25:28.436Z,4.85
2018-11-14T06:27:57.873Z,6.05
2018-11-14T06:30:26.733Z,5.45
2018-11-14T06:32:55.896Z,7.47
2018-11-14T06:35:24.633Z,8.03
2018-11-14T06:37:53.734Z,6.37
2018-11-14T06:40:22.257Z,6.40
2018-11-14T06:42:50.871Z,7.12
2018-11-14T06:45:20.715Z,7.20
2018-11-14T06:47:50.735Z,8.15
2018-11-14T06:50:19.263Z,6.80
2018-11-14T06:52:48.936Z,7.53
2018-11-14T06:55:18.114Z,8.08
2018-11-14T06:57:46.648Z,8.80
2018-11-14T07:00:25.063Z,7.15
2018-11-14T07:02:54.205Z,9.88
2018-11-14T07:05:22.865Z,8.78
2018-11-14T07:07:51.395Z,8.55
2018-11-14T07:10:22.534Z,7.95
2018-11-14T07:12:51.074Z,9.38
2018-11-14T07:15:20.945Z,10.13
2018-11-14T07:17:50.372Z,7.85
2018-11-14T07:20:22.664Z,8.98
2018-11-14T07:22:51.263Z,7.25
2018-11-14T07:25:19.842Z,8.05
2018-11-14T07:27:48.446Z,6.50
2018-11-14T07:30:18.752Z,8.55
2018-11-14T07:32:48.761Z,7.25
2018-11-14T07:35:17.970Z,8.73
2018-11-14T07:38:58.210Z,7.92
2018-11-14T07:41:31.097Z,7.20
2018-11-14T07:43:59.889Z,8.35
2018-11-14T07:46:29.510Z,8.50
2018-11-14T07:48:58.434Z,8.20
2018-11-14T07:51:26.963Z,8.65
2018-11-14T07:53:55.537Z,10.03
2018-11-14T07:56:24.094Z,8.98
2018-11-14T07:58:52.657Z,8.08
2018-11-14T08:01:21.263Z,8.60
2018-11-14T08:03:49.891Z,9.63
2018-11-14T08:06:18.687Z,9.50
2018-11-14T08:08:47.505Z,8.75
2018-11-14T08:11:16.089Z,9.60
2018-11-14T08:13:46.045Z,8.68
2018-11-14T08:16:14.946Z,9.33
2018-11-14T08:18:43.518Z,9.48
2018-11-14T08:21:12.206Z,8.85
2018-11-14T08:23:40.989Z,9.65
2018-11-14T08:26:09.547Z,8.43
2018-11-14T08:28:38.218Z,8.48
2018-11-14T08:31:06.834Z,8.05
2018-11-14T08:33:35.431Z,9.20
2018-11-14T08:36:04.026Z,9.55
2018-11-14T08:38:32.602Z,9.25
2018-11-14T08:41:01.190Z,10.38
2018-11-14T08:43:29.730Z,10.08
2018-11-14T08:45:58.330Z,8.43
2018-11-14T08:48:26.894Z,9.78
2018-11-14T08:50:55.494Z,9.05
2018-11-14T08:53:24.049Z,8.73
2018-11-14T08:55:52.588Z,7.70
2018-11-14T08:58:21.124Z,8.40
2018-11-14T09:00:49.793Z,7.40
2018-11-14T09:03:18.326Z,5.50
2018-11-14T09:05:46.946Z,6.78
2018-11-14T09:08:15.486Z,6.25
2018-11-14T09:10:44.054Z,5.80
2018-11-14T09:13:14.594Z,6.00
2018-11-14T09:15:43.360Z,6.67
2018-11-14T09:18:11.981Z,6.95
2018-11-14T09:20:40.722Z,7.90
2018-11-14T09:23:09.435Z,7.85
2018-11-14T09:25:38.001Z,8.10
2018-11-14T09:28:06.857Z,10.35
2018-11-14T09:30:35.414Z,10.30
2018-11-14T09:33:04.044Z,10.98
2018-11-14T09:35:32.815Z,8.25
2018-11-14T09:38:01.928Z,8.10
2018-11-14T09:40:30.935Z,10.32
2018-11-14T09:42:59.694Z,10.58
2018-11-14T09:45:29.537Z,8.25
2018-11-14T09:47:58.373Z,9.75
2018-11-14T09:50:28.245Z,9.48
2018-11-14T09:52:59.196Z,8.78
2018-11-14T09:55:27.773Z,8.35
2018-11-14T09:57:56.390Z,8.48
2018-11-14T10:00:27.150Z,7.22
2018-11-14T10:02:57.750Z,8.03
2018-11-14T10:05:26.473Z,7.67
2018-11-14T10:07:55.072Z,8.05
2018-11-14T10:10:24.119Z,8.65
2018-11-14T10:12:52.706Z,8.33
2018-11-14T10:15:22.567Z,8.70
2018-11-14T10:17:51.097Z,9.70
2018-11-14T10:20:20.909Z,8.95
2018-11-14T10:22:49.589Z,8.10
2018-11-14T10:25:18.571Z,10.60
2018-11-14T10:27:47.886Z,9.63
2018-11-14T10:30:21.295Z,11.25
2018-11-14T10:32:50.489Z,10.50
2018-11-14T10:35:19.145Z,10.78
2018-11-14T10:37:47.778Z,10.53
2018-11-14T10:40:19.245Z,13.55
2018-11-14T10:42:47.832Z,11.70
2018-11-14T10:45:17.695Z,12.05
2018-11-14T10:47:46.286Z,12.45
2018-11-14T10:50:17.525Z,13.32
2018-11-14T10:52:46.124Z,12.58
2018-11-14T10:55:15.389Z,12.68
2018-11-14T10:57:43.962Z,13.25
2018-11-14T11:00:19.705Z,12.95
2018-11-14T11:03:54.232Z,13.85
2018-11-14T11:06:27.971Z,11.88
2018-11-14T11:09:01.926Z,10.82
2018-11-14T11:11:34.752Z,11.60
2018-11-14T11:14:08.798Z,10.68
2018-11-14T11:16:41.577Z,13.15
2018-11-14T11:19:10.289Z,12.80
2018-11-14T11:21:38.823Z,10.75
2018-11-14T11:24:07.420Z,10.00
2018-11-14T11:26:36.798Z,9.58
2018-11-14T11:29:06.227Z,12.20
2018-11-14T11:31:34.855Z,10.28
2018-11-14T11:34:03.645Z,10.50
2018-11-14T11:36:32.246Z,11.78
2018-11-14T11:39:01.321Z,9.20
2018-11-14T11:41:29.870Z,7.80
2018-11-14T11:43:58.607Z,9.00
2018-11-14T11:46:27.237Z,8.88
2018-11-14T11:48:55.810Z,10.08
2018-11-14T11:51:24.373Z,8.78
2018-11-14T11:53:53.051Z,9.03
2018-11-14T11:56:21.701Z,9.63
2018-11-14T11:58:50.376Z,10.70
2018-11-14T12:01:18.925Z,11.15
2018-11-14T12:03:47.453Z,10.23
2018-11-14T12:06:16.336Z,10.75
2018-11-14T12:08:44.916Z,9.93
2018-11-14T12:11:13.744Z,8.63
2018-11-14T12:13:42.644Z,7.97
2018-11-14T12:16:11.238Z,7.72
2018-11-14T12:18:39.869Z,7.83
2018-11-14T12:21:08.742Z,7.43
2018-11-14T12:23:37.311Z,7.72
2018-11-14T12:26:06.062Z,7.75
2018-11-14T12:28:34.912Z,8.28
2018-11-14T12:31:03.675Z,8.68
2018-11-14T12:33:32.087Z,9.18
2018-11-14T12:36:00.653Z,9.63
2018-11-14T12:38:29.295Z,8.98
2018-11-14T12:40:57.805Z,7.92
2018-11-14T12:43:26.369Z,7.40
2018-11-14T12:45:54.921Z,8.60
2018-11-14T12:48:23.557Z,8.00
2018-11-14T12:50:52.157Z,8.30
2018-11-14T12:53:20.761Z,8.80
2018-11-14T12:55:49.333Z,9.20
2018-11-14T12:58:17.937Z,9.55
2018-11-14T13:00:46.483Z,9.90
2018-11-14T13:03:15.046Z,10.43
2018-11-14T13:05:43.846Z,9.80
2018-11-14T13:08:12.491Z,10.20
2018-11-14T13:10:41.225Z,10.48
2018-11-14T13:13:09.772Z,8.00
2018-11-14T13:15:39.331Z,10.00
2018-11-14T13:18:07.999Z,9.00
2018-11-14T13:20:36.768Z,10.70
2018-11-14T13:23:05.513Z,10.98
2018-11-14T13:25:34.226Z,10.65
2018-11-14T13:28:02.902Z,10.75
2018-11-14T13:30:31.524Z,11.05
2018-11-14T13:33:00.251Z,11.33
2018-11-14T13:35:28.817Z,10.00
2018-11-14T13:37:57.479Z,10.58
2018-11-14T13:40:26.665Z,10.98
2018-11-14T13:42:55.397Z,11.83
2018-11-14T13:45:24.018Z,11.65
2018-11-14T13:47:52.734Z,10.93
2018-11-14T13:50:22.486Z,11.60
2018-11-14T13:52:51.339Z,10.28
2018-11-14T13:55:20.933Z,11.18
2018-11-14T13:57:50.737Z,10.80
2018-11-14T14:00:20.645Z,10.08
2018-11-14T14:02:50.237Z,9.33
2018-11-14T14:05:20.028Z,10.30
2018-11-14T14:07:48.707Z,9.50
2018-11-14T14:10:18.121Z,9.63
2018-11-14T14:12:48.075Z,10.58
2018-11-14T14:15:22.082Z,12.05
2018-11-14T14:17:51.036Z,13.43
2018-11-14T14:20:20.274Z,13.85
2018-11-14T14:22:48.855Z,11.90
2018-11-14T14:25:18.598Z,12.68
2018-11-14T14:27:47.282Z,11.83
2018-11-14T14:30:16.957Z,12.05
2018-11-14T14:32:46.151Z,11.93
2018-11-14T14:35:16.041Z,11.33
2018-11-14T14:37:44.708Z,11.35
2018-11-14T14:40:15.282Z,10.63
2018-11-14T14:42:44.133Z,9.50
2018-11-14T14:45:14.134Z,10.58
2018-11-14T14:47:42.872Z,10.60
2018-11-14T14:50:13.547Z,10.35
2018-11-14T14:52:42.960Z,9.70
2018-11-14T14:55:17.184Z,10.70
2018-11-14T14:57:46.575Z,11.83
2018-11-14T15:00:21.893Z,12.23
2018-11-14T15:02:50.469Z,11.57
2018-11-14T15:05:19.142Z,11.68
2018-11-14T15:07:47.730Z,10.80
2018-11-14T15:10:19.433Z,11.78
2018-11-14T15:12:48.045Z,12.80
2018-11-14T15:15:17.030Z,11.80
2018-11-14T15:17:45.998Z,11.67
2018-11-14T15:20:17.109Z,11.48
2018-11-14T15:22:45.931Z,12.23
2018-11-14T15:25:16.037Z,13.50
2018-11-14T15:27:45.080Z,12.73
2018-11-14T15:30:17.562Z,15.05
2018-11-14T15:32:46.318Z,15.63
2018-11-14T15:35:14.971Z,15.32
2018-11-14T15:37:43.600Z,14.35
2018-11-14T15:40:14.241Z,15.78
2018-11-14T15:42:42.969Z,14.80
2018-11-14T15:45:13.934Z,17.23
2018-11-14T15:47:42.727Z,13.95
2018-11-14T15:50:13.031Z,13.70
2018-11-14T15:52:42.669Z,15.43
2018-11-14T15:55:12.343Z,18.90
2018-11-14T15:57:41.136Z,16.90
2018-11-14T16:00:13.654Z,14.07
2018-11-14T16:02:42.359Z,14.93
2018-11-14T16:05:13.082Z,14.63
2018-11-14T16:07:43.889Z,14.60
2018-11-14T16:10:13.720Z,14.90
2018-11-14T16:12:42.834Z,16.42
2018-11-14T16:15:12.903Z,18.00
2018-11-14T16:17:41.842Z,19.32
2018-11-14T16:20:12.236Z,17.85
2018-11-14T16:22:40.890Z,15.83
2018-11-14T16:25:12.220Z,15.70
2018-11-14T16:27:41.445Z,17.63
2018-11-14T16:30:23.282Z,14.10
2018-11-14T16:32:53.379Z,15.08
2018-11-14T16:35:22.099Z,16.52
2018-11-14T16:37:50.790Z,16.93
2018-11-14T16:40:23.622Z,16.97
2018-11-14T16:42:53.315Z,18.05
2018-11-14T16:45:22.129Z,16.65
2018-11-14T16:47:50.813Z,21.37
2018-11-14T16:50:20.297Z,18.17
2018-11-14T16:52:49.159Z,18.30
2018-11-14T16:55:19.058Z,15.95
2018-11-14T16:57:48.447Z,18.30
2018-11-14T17:00:21.132Z,17.40
2018-11-14T17:02:49.942Z,17.40
2018-11-14T17:05:19.017Z,16.17
2018-11-14T17:07:47.919Z,15.30
2018-11-14T17:10:17.916Z,16.23
2018-11-14T17:12:47.699Z,14.20
2018-11-14T17:15:18.483Z,15.50
2018-11-14T17:17:47.073Z,14.05
2018-11-14T17:20:16.685Z,18.42
2018-11-14T17:22:45.961Z,15.72
2018-11-14T17:25:15.648Z,13.38
2018-11-14T17:27:44.860Z,16.57
2018-11-14T17:30:16.699Z,15.25
2018-11-14T17:32:45.444Z,15.83
2018-11-14T17:35:14.878Z,14.13
2018-11-14T17:37:44.287Z,16.30
2018-11-14T17:40:16.314Z,15.88
2018-11-14T17:42:45.880Z,15.78
2018-11-14T17:45:17.069Z,16.07
2018-11-14T17:47:46.321Z,15.75
2018-11-14T17:50:20.957Z,15.63
2018-11-14T17:52:50.537Z,17.05
2018-11-14T17:55:20.426Z,16.20
2018-11-14T17:57:49.152Z,16.48
2018-11-14T18:00:21.089Z,15.95
2018-11-14T18:02:49.753Z,16.90
2018-11-14T18:05:19.695Z,18.05
2018-11-14T18:07:48.935Z,17.17
2018-11-14T18:10:18.913Z,19.77
2018-11-14T18:12:48.640Z,16.77
2018-11-14T18:15:18.007Z,18.95
2018-11-14T18:17:47.090Z,23.60
2018-11-14T18:20:18.258Z,20.60
2018-11-14T18:22:47.658Z,21.33
2018-11-14T18:25:16.757Z,16.85
2018-11-14T18:27:45.548Z,16.32
2018-11-14T18:30:21.945Z,17.42
2018-11-14T18:32:51.069Z,16.17
2018-11-14T18:35:20.556Z,15.68
2018-11-14T18:37:50.081Z,16.75
2018-11-14T18:40:22.863Z,16.52
2018-11-14T18:42:51.663Z,17.25
2018-11-14T18:45:24.886Z,16.65
2018-11-14T18:47:54.252Z,17.92
2018-11-14T18:50:23.465Z,18.37
2018-11-14T18:52:52.688Z,17.52
2018-11-14T18:55:23.626Z,16.50
2018-11-14T18:57:52.635Z,18.02
2018-11-14T19:00:24.763Z,18.65
2018-11-14T19:02:53.368Z,20.30
2018-11-14T19:05:21.918Z,18.20
2018-11-14T19:07:50.493Z,21.62
2018-11-14T19:10:20.979Z,20.37
2018-11-14T19:12:50.192Z,21.17
2018-11-14T19:15:20.228Z,20.40
2018-11-14T19:17:48.853Z,23.25
2018-11-14T19:20:19.815Z,20.37
2018-11-14T19:22:48.633Z,20.90
2018-11-14T19:25:19.385Z,21.95
2018-11-14T19:27:48.515Z,23.73
2018-11-14T19:30:19.643Z,22.07
2018-11-14T19:32:49.619Z,23.73
2018-11-14T19:35:18.610Z,22.65
2018-11-14T19:37:48.453Z,23.70
2018-11-14T19:40:18.625Z,22.60
2018-11-14T19:42:48.317Z,23.18
2018-11-14T19:45:22.662Z,26.70
2018-11-14T19:47:51.275Z,26.60
2018-11-14T19:50:21.989Z,26.27
2018-11-14T19:52:51.718Z,23.87
2018-11-14T19:55:21.673Z,26.00
2018-11-14T19:57:51.567Z,22.22
2018-11-14T20:00:25.672Z,26.45
2018-11-14T20:02:54.238Z,25.68
2018-11-14T20:05:23.149Z,22.02
2018-11-14T20:07:51.877Z,23.55
2018-11-14T20:10:21.765Z,24.20
2018-11-14T20:12:50.887Z,25.15
2018-11-14T20:15:21.125Z,25.23
2018-11-14T20:17:50.090Z,25.82
2018-11-14T20:20:20.127Z,25.32
2018-11-14T20:22:48.853Z,28.92
2018-11-14T20:25:17.492Z,29.67
2018-11-14T20:27:46.495Z,27.35
2018-11-14T20:30:20.173Z,28.60
2018-11-14T20:32:49.400Z,26.75
2018-11-14T20:35:19.464Z,22.42
2018-11-14T20:37:48.161Z,28.98
2018-11-14T20:40:18.018Z,30.48
2018-11-14T20:42:47.410Z,32.15
2018-11-14T20:45:26.914Z,32.63
2018-11-14T20:47:55.540Z,29.48
2018-11-14T20:50:25.124Z,31.97
2018-11-14T20:52:55.294Z,31.15
2018-11-14T20:55:24.006Z,30.55
2018-11-14T20:57:52.665Z,33.38
2018-11-14T21:00:31.794Z,31.17
2018-11-14T21:03:00.484Z,28.92
2018-11-14T21:05:29.731Z,29.95
2018-11-14T21:07:58.652Z,32.70
2018-11-14T21:10:28.717Z,34.30
2018-11-14T21:12:57.737Z,29.20
2018-11-14T21:15:27.634Z,30.68
2018-11-14T21:17:57.153Z,29.30
2018-11-14T21:20:25.744Z,33.30
2018-11-14T21:22:54.359Z,32.50
2018-11-14T21:25:23.821Z,32.70
2018-11-14T21:27:52.905Z,28.35
2018-11-14T21:30:22.833Z,30.43
2018-11-14T21:32:51.596Z,33.40
2018-11-14T21:35:22.748Z,33.67
2018-11-14T21:37:52.773Z,30.60
2018-11-14T21:40:21.354Z,31.33
2018-11-14T21:42:50.045Z,35.88
2018-11-14T21:45:20.061Z,31.33
2018-11-14T21:47:54.059Z,34.48
2018-11-14T21:50:24.061Z,30.62
2018-11-14T21:52:52.864Z,32.75
2018-11-14T21:55:21.505Z,33.90
2018-11-14T21:57:50.136Z,33.30
2018-11-14T22:00:21.157Z,35.23
2018-11-14T22:02:51.168Z,33.28
2018-11-14T22:05:19.743Z,34.83
2018-11-14T22:07:48.370Z,31.07
2018-11-14T22:10:18.074Z,30.05
2018-11-14T22:12:47.014Z,32.40
2018-11-14T22:15:16.978Z,29.00
2018-11-14T22:17:45.573Z,31.35
2018-11-14T22:20:15.567Z,30.75
2018-11-14T22:22:44.826Z,28.12
2018-11-14T22:25:14.845Z,28.75
2018-11-14T22:27:43.435Z,26.55
2018-11-14T22:30:18.962Z,27.55
2018-11-14T22:32:47.712Z,27.85
2018-11-14T22:35:17.716Z,28.45
2018-11-14T22:37:46.285Z,28.47
2018-11-14T22:40:20.489Z,28.38
2018-11-14T22:42:49.033Z,26.52
2018-11-14T22:45:19.050Z,26.37
2018-11-14T22:47:47.869Z,23.90
2018-11-14T22:50:22.473Z,21.85
2018-11-14T22:52:51.462Z,21.05
2018-11-14T22:55:21.021Z,21.73
2018-11-14T22:57:50.405Z,20.77
2018-11-14T23:00:25.486Z,23.75
2018-11-14T23:02:55.415Z,25.45
2018-11-14T23:05:24.049Z,25.52
2018-11-14T23:07:53.613Z,19.73
2018-11-14T23:10:23.081Z,20.55
2018-11-14T23:12:51.896Z,22.55
2018-11-14T23:15:21.337Z,20.17
2018-11-14T23:17:50.097Z,22.17
2018-11-14T23:20:19.166Z,23.67
2018-11-14T23:22:48.475Z,18.55
2018-11-14T23:25:17.674Z,19.32
2018-11-14T23:27:47.694Z,19.50
2018-11-14T23:30:17.185Z,23.12
2018-11-14T23:32:46.931Z,20.97
2018-11-14T23:35:17.827Z,23.05
2018-11-14T23:37:48.478Z,24.35
2018-11-14T23:40:17.080Z,21.07
2018-11-14T23:42:45.633Z,25.68
2018-11-14T23:45:15.453Z,24.00
2018-11-14T23:47:44.740Z,21.00
2018-11-14T23:50:16.133Z,19.52
2018-11-14T23:52:46.012Z,19.05
2018-11-14T23:55:15.310Z,21.93
2018-11-14T23:57:43.841Z,23.92
